Time;durP1;ratioP1;P1;durP2;ratioP2;P2;SDS_P1;SDS_P2;PMS_P1;PMS_P2;Temp;Humidity;BMP_temperature;BMP_pressure;BME280_temperature;BME280_humidity;BME280_pressure;Samples;Min_cycle;Max_cycle;Signal;HPM_P1;HPM_P2
2022/09/25 00:00:19;;;;;;;4.88;3.58;;;;;;;16.76;55.72;101803.94;5071667;28;20035;-83
2022/09/25 00:02:44;;;;;;;5.45;3.67;;;;;;;16.40;55.97;101735.53;5071507;28;20032;-84
2022/09/25 00:05:10;;;;;;;5.05;3.60;;;;;;;16.86;55.93;101823.78;5062793;28;20021;-84
2022/09/25 00:07:35;;;;;;;4.22;3.60;;;;;;;16.89;55.79;101821.28;5047616;28;20040;-84
2022/09/25 00:10:01;;;;;;;4.13;3.50;;;;;;;16.58;55.84;101792.56;5068721;28;20032;-84
2022/09/25 00:12:27;;;;;;;4.07;3.67;;;;;;;16.48;56.24;101778.06;5041179;28;20109;-84
2022/09/25 00:14:52;;;;;;;5.13;3.72;;;;;;;16.43;55.72;101742.69;5069941;28;20097;-84
2022/09/25 00:17:18;;;;;;;4.97;3.72;;;;;;;16.79;56.15;101814.66;5070208;28;20402;-84
2022/09/25 00:19:49;;;;;;;4.25;3.83;;;;;;;16.34;55.95;101736.97;5067390;28;20028;-84
2022/09/25 00:22:16;;;;;;;5.50;3.22;;;;;;;16.74;55.86;101788.88;5069214;28;20032;-84
2022/09/25 00:24:42;;;;;;;3.92;3.53;;;;;;;16.77;56.04;101803.13;5052072;28;20029;-84
2022/09/25 00:27:07;;;;;;;5.03;3.67;;;;;;;16.52;55.96;101760.66;5045349;28;20159;-84
2022/09/25 00:29:35;;;;;;;4.70;3.88;;;;;;;16.83;56.10;101821.00;5046507;28;20028;-84
2022/09/25 00:32:01;;;;;;;3.90;3.53;;;;;;;16.51;55.91;101753.56;5049232;28;20024;-84
2022/09/25 00:34:27;;;;;;;;;;;;;;;16.92;55.82;101820.53;5052483;28;20139;-84
2022/09/25 00:36:52;;;;;;;3.63;3.33;;;;;;;16.73;55.74;101800.28;5062220;28;20420;-84
2022/09/25 00:39:18;;;;;;;4.10;3.70;;;;;;;16.84;55.79;101815.78;5058484;28;20538;-84
2022/09/25 00:41:43;;;;;;;4.82;3.80;;;;;;;16.59;55.87;101782.06;5068234;28;20108;-84
2022/09/25 00:44:47;;;;;;;3.88;3.47;;;;;;;16.87;55.69;101809.78;5060455;28;20021;-84
2022/09/25 00:47:19;;;;;;;4.22;3.83;;;;;;;16.65;55.84;101781.47;5068477;28;20123;-84
2022/09/25 00:49:45;;;;;;;3.75;3.45;;;;;;;16.76;55.83;101803.03;5051620;28;20038;-84
2022/09/25 00:52:12;;;;;;;3.50;3.20;;;;;;;16.69;55.84;101791.31;5069809;28;20052;-83
2022/09/25 00:54:47;;;;;;;4.10;3.70;;;;;;;16.45;55.86;101748.94;5053516;28;20032;-84
2022/09/25 00:57:15;;;;;;;4.00;3.30;;;;;;;16.81;55.60;101807.75;5043993;28;20056;-84
2022/09/25 00:59:47;;;;;;;4.22;3.78;;;;;;;16.81;55.54;101818.28;5069728;28;20120;-84
2022/09/25 01:02:33;;;;;;;4.57;3.50;;;;;;;16.55;55.63;101766.97;5050240;28;20029;-84
2022/09/25 01:05:09;;;;;;;5.57;3.83;;;;;;;16.59;55.90;101781.19;5041995;28;20052;-84
2022/09/25 01:07:38;;;;;;;3.58;3.28;;;;;;;16.77;55.71;101799.59;5069221;28;20077;-84
2022/09/25 01:10:07;;;;;;;4.05;3.42;;;;;;;16.66;55.73;101784.19;5050742;28;20107;-84
2022/09/25 01:12:38;;;;;;;3.80;3.40;;;;;;;16.47;55.90;101753.44;5051959;28;20028;-84
2022/09/25 01:15:06;;;;;;;4.47;3.88;;;;;;;16.72;55.75;101787.91;5050954;28;20070;-84
2022/09/25 01:17:50;;;;;;;4.97;3.45;;;;;;;16.25;55.66;101697.91;5050662;28;20079;-84
2022/09/25 01:20:37;;;;;;;3.67;3.38;;;;;;;16.71;55.76;101772.94;5068245;28;20043;-84
2022/09/25 01:23:52;;;;;;;5.35;3.58;;;;;;;16.64;55.87;101761.22;5067664;28;20059;-84
2022/09/25 01:26:38;;;;;;;4.82;3.60;;;;;;;16.77;55.67;101786.41;4981679;28;20527;-83
2022/09/25 01:29:18;;;;;;;3.78;3.47;;;;;;;16.63;55.71;101770.84;4978438;28;20059;-84
2022/09/25 01:31:51;;;;;;;4.38;3.75;;;;;;;16.60;55.54;101752.25;5044442;28;20047;-84
2022/09/25 01:34:27;;;;;;;3.60;3.28;;;;;;;16.73;55.72;101785.34;5049560;28;20080;-84
2022/09/25 01:37:04;;;;;;;3.30;2.95;;;;;;;16.64;55.77;101772.66;5044340;28;20174;-84
2022/09/25 01:39:44;;;;;;;3.95;3.25;;;;;;;16.64;55.86;101774.41;5060830;28;20037;-84
2022/09/25 01:42:25;;;;;;;4.05;3.65;;;;;;;16.61;55.77;101767.22;5054934;28;20036;-84
2022/09/25 01:45:31;;;;;;;3.50;3.20;;;;;;;16.77;55.65;101791.69;5063421;28;20025;-84
2022/09/25 01:48:00;;;;;;;3.92;3.53;;;;;;;16.66;55.63;101772.72;5070398;28;20108;-84
2022/09/25 01:50:43;;;;;;;3.50;3.20;;;;;;;16.65;55.54;101771.81;5057667;28;20470;-84
2022/09/25 01:53:13;;;;;;;4.30;3.60;;;;;;;16.70;55.60;101779.94;5051451;28;20035;-84
2022/09/25 01:55:53;;;;;;;3.78;3.38;;;;;;;16.54;55.79;101762.53;5048873;28;20060;-84
2022/09/25 01:58:58;;;;;;;3.45;3.15;;;;;;;16.76;55.59;101796.03;5038853;28;20025;-84
2022/09/25 02:01:31;;;;;;;3.97;3.53;;;;;;;16.66;55.67;101783.28;5039938;28;20025;-84
2022/09/25 02:04:39;;;;;;;3.50;3.20;;;;;;;16.76;55.59;101801.31;5051641;28;20024;-84
2022/09/25 02:07:07;;;;;;;3.88;3.53;;;;;;;16.66;55.53;101781.53;4987012;28;20034;-84
2022/09/25 02:09:44;;;;;;;4.57;3.67;;;;;;;16.49;55.71;101764.06;5040402;28;20553;-84
2022/09/25 02:12:33;;;;;;;3.90;3.50;;;;;;;16.67;55.67;101806.19;5051406;28;20024;-84
2022/09/25 02:15:05;;;;;;;4.10;3.70;;;;;;;16.73;55.45;101808.19;5050094;28;20036;-83
2022/09/25 02:20:32;;;;;;;4.10;3.30;;;;;;;16.71;55.58;101800.22;5054424;28;20515;-82
2022/09/25 02:23:17;;;;;;;3.63;3.25;;;;;;;16.66;55.58;101793.84;5054720;28;20052;-82
2022/09/25 02:26:07;;;;;;;4.20;3.58;;;;;;;16.74;55.47;101795.06;5072978;28;20040;-83
2022/09/25 02:28:34;;;;;;;3.25;2.88;;;;;;;16.56;55.64;101774.03;5045218;28;20119;-83
2022/09/25 02:31:03;;;;;;;3.60;3.30;;;;;;;16.60;55.52;101778.63;5054978;28;20038;-83
2022/09/25 02:33:30;;;;;;;4.80;3.50;;;;;;;16.56;55.50;101778.41;5062587;28;20017;-84
2022/09/25 02:35:58;;;;;;;4.85;3.50;;;;;;;16.66;55.51;101791.19;5056175;28;20098;-85
2022/09/25 02:38:23;;;;;;;3.85;3.45;;;;;;;16.69;55.47;101804.50;5070368;28;20098;-84
2022/09/25 02:40:55;;;;;;;5.60;3.47;;;;;;;16.68;55.50;101802.72;5072574;28;20592;-83
2022/09/25 02:43:39;;;;;;;3.78;3.47;;;;;;;16.65;55.63;101805.19;5056963;28;20024;-84
2022/09/25 02:46:42;;;;;;;3.80;3.38;;;;;;;16.64;55.56;101809.59;5067629;28;20044;-84
2022/09/25 02:49:45;;;;;;;3.80;3.30;;;;;;;16.69;55.53;101809.78;5071099;28;20493;-84
2022/09/25 02:52:17;;;;;;;3.83;3.30;;;;;;;16.65;55.32;101802.56;4985775;28;20040;-85
2022/09/25 02:54:52;;;;;;;3.53;3.13;;;;;;;16.53;55.60;101802.00;5053219;28;20461;-84
2022/09/25 02:57:36;;;;;;;4.03;3.35;;;;;;;16.60;55.64;101812.00;5051942;28;20025;-84
2022/09/25 03:00:06;;;;;;;4.07;3.67;;;;;;;16.37;55.70;101793.38;5071403;28;20062;-84
2022/09/25 03:02:33;;;;;;;3.92;3.53;;;;;;;16.38;55.62;101778.44;5069355;28;20027;-84
2022/09/25 03:04:59;;;;;;;3.80;3.33;;;;;;;16.58;55.59;101813.69;5054157;28;20975;-83
2022/09/25 03:07:25;;;;;;;4.57;3.47;;;;;;;16.38;55.36;101778.44;5053130;28;20032;-83
2022/09/25 03:09:52;;;;;;;3.80;3.40;;;;;;;16.59;55.50;101824.28;5053605;28;20505;-82
2022/09/25 03:12:17;;;;;;;4.32;3.67;;;;;;;16.49;55.41;101804.50;5053599;28;20040;-84
2022/09/25 03:14:43;;;;;;;3.95;3.55;;;;;;;16.42;55.25;101790.94;5054056;28;20073;-83
2022/09/25 03:17:10;;;;;;;4.18;3.25;;;;;;;16.59;55.45;101826.91;5072096;28;20033;-84
2022/09/25 03:19:37;;;;;;;3.72;3.30;;;;;;;16.59;55.47;101823.38;5050559;28;20048;-84
2022/09/25 03:22:02;;;;;;;4.18;3.78;;;;;;;16.59;55.22;101813.72;5072520;28;20024;-84
2022/09/25 03:24:28;;;;;;;3.78;3.45;;;;;;;16.53;55.44;101812.53;5056877;28;20112;-84
2022/09/25 03:26:54;;;;;;;3.70;3.20;;;;;;;16.49;55.33;101800.97;5071966;28;20029;-84
2022/09/25 03:29:20;;;;;;;3.85;3.33;;;;;;;16.63;55.35;101826.22;5069797;28;20786;-84
2022/09/25 03:31:45;;;;;;;;;;;;;;;16.65;55.36;101823.66;5073094;28;20040;-84
2022/09/25 03:34:13;;;;;;;3.47;3.08;;;;;;;16.30;55.34;101788.66;5069471;28;20339;-83
2022/09/25 03:36:39;;;;;;;4.25;3.85;;;;;;;16.22;55.54;101775.13;5050955;28;20024;-83
2022/09/25 03:39:05;;;;;;;3.50;3.20;;;;;;;16.53;55.41;101829.28;5051314;28;20090;-84
2022/09/25 03:41:32;;;;;;;3.78;3.40;;;;;;;16.52;55.62;101821.28;5052375;28;20058;-84
2022/09/25 03:43:58;;;;;;;3.20;2.90;;;;;;;16.44;55.59;101798.09;5057076;28;20035;-84
2022/09/25 03:46:32;;;;;;;4.60;3.50;;;;;;;16.57;55.29;101812.75;5055137;28;20036;-84
2022/09/25 03:48:58;;;;;;;3.60;3.30;;;;;;;16.43;55.41;101796.31;5058514;28;20040;-83
2022/09/25 03:51:26;;;;;;;3.50;3.20;;;;;;;16.54;55.48;101828.44;5070340;28;20028;-84
2022/09/25 03:53:52;;;;;;;3.63;3.33;;;;;;;16.52;55.34;101826.56;5070197;28;20032;-84
2022/09/25 03:56:20;;;;;;;4.20;3.80;;;;;;;16.28;55.40;101791.22;5055877;28;20048;-84
2022/09/25 03:58:47;;;;;;;4.65;3.20;;;;;;;16.48;55.51;101829.03;5052937;28;20033;-84
2022/09/25 04:01:13;;;;;;;4.43;3.30;;;;;;;16.42;55.38;101801.50;5071220;28;20537;-84
2022/09/25 04:03:39;;;;;;;3.78;3.38;;;;;;;16.53;55.57;101821.38;5052616;28;20028;-84
2022/09/25 04:06:07;;;;;;;4.18;3.30;;;;;;;16.34;55.19;101798.53;5053325;28;20408;-84
2022/09/25 04:08:34;;;;;;;3.30;3.00;;;;;;;16.48;55.36;101829.03;5053575;28;20058;-84
2022/09/25 04:11:02;;;;;;;3.53;3.22;;;;;;;16.33;55.31;101795.81;5070775;28;20508;-84
2022/09/25 04:13:30;;;;;;;3.63;3.33;;;;;;;16.37;55.29;101808.31;5050932;28;20024;-84
2022/09/25 04:16:00;;;;;;;4.18;3.30;;;;;;;16.32;55.19;101801.88;5052054;28;20028;-84
2022/09/25 04:18:30;;;;;;;4.72;3.63;;;;;;;16.45;55.19;101828.03;5053164;28;20024;-85
2022/09/25 04:20:57;;;;;;;4.25;3.33;;;;;;;16.16;55.31;101785.34;5051729;28;20029;-84
2022/09/25 04:23:23;;;;;;;3.50;3.20;;;;;;;16.44;55.77;101842.03;5056866;28;20028;-85
2022/09/25 04:25:49;;;;;;;3.88;3.47;;;;;;;16.20;55.29;101792.59;5051986;28;21079;-83
2022/09/25 04:28:14;;;;;;;3.47;3.17;;;;;;;16.10;55.36;101784.16;5070217;28;20052;-84
2022/09/25 04:30:40;;;;;;;3.97;3.58;;;;;;;16.38;55.23;101825.91;5070805;28;20021;-83
2022/09/25 04:35:50;;;;;;;4.65;3.58;;;;;;;16.40;55.30;101838.34;5057356;28;20531;-84
2022/09/25 04:38:16;;;;;;;4.07;3.58;;;;;;;16.32;55.42;101828.25;5057884;28;20024;-84
2022/09/25 04:40:42;;;;;;;3.50;3.13;;;;;;;16.42;55.19;101841.03;5059431;28;20041;-84
2022/09/25 04:43:07;;;;;;;3.78;3.38;;;;;;;16.36;55.40;101835.47;5063502;28;20024;-84
2022/09/25 04:45:35;;;;;;;5.03;3.83;;;;;;;15.91;55.43;101767.47;5044447;28;20036;-85
2022/09/25 04:48:02;;;;;;;4.70;3.50;;;;;;;16.42;55.36;101847.22;5046533;28;20036;-85
2022/09/25 04:50:28;;;;;;;3.38;3.13;;;;;;;16.32;55.23;101829.19;5056266;28;20013;-85
2022/09/25 04:52:55;;;;;;;3.83;3.50;;;;;;;16.41;55.33;101850.69;5049248;28;20090;-87
2022/09/25 04:55:23;;;;;;;3.72;3.30;;;;;;;16.25;55.50;101830.59;5060416;28;20575;-87
2022/09/25 04:57:54;;;;;;;4.05;3.60;;;;;;;16.38;55.36;101845.28;5052474;28;20066;-87
2022/09/25 05:00:21;;;;;;;4.95;3.55;;;;;;;16.37;55.46;101838.19;5054664;28;20512;-87
2022/09/25 05:02:46;;;;;;;;;;;;;;;16.43;55.33;101840.22;5051952;28;20029;-87
2022/09/25 05:05:13;;;;;;;4.05;3.63;;;;;;;16.16;55.28;101810.81;5050250;28;19913;-87
2022/09/25 05:07:38;;;;;;;;;;;;;;;16.40;55.38;101835.72;5055309;28;20028;-88
2022/09/25 05:10:07;;;;;;;3.67;3.33;;;;;;;16.34;55.58;101832.78;5052028;28;19944;-87
2022/09/25 05:12:33;;;;;;;4.30;3.42;;;;;;;16.39;55.45;101846.19;5062940;28;20114;-84
2022/09/25 05:14:58;;;;;;;3.40;3.10;;;;;;;16.19;55.65;101810.94;5067793;28;20062;-86
2022/09/25 05:17:24;;;;;;;4.82;3.47;;;;;;;16.36;55.44;101841.69;5051973;28;20032;-88
2022/09/25 05:19:50;;;;;;;4.30;3.50;;;;;;;16.43;55.52;101838.50;5068343;28;20036;-88
2022/09/25 05:22:15;;;;;;;5.63;3.70;;;;;;;16.41;55.33;101839.25;5035964;28;20028;-87
2022/09/25 05:24:41;;;;;;;3.90;3.50;;;;;;;16.43;55.30;101843.75;5067840;28;20107;-85
2022/09/25 05:27:07;;;;;;;6.20;3.60;;;;;;;16.36;55.38;101833.78;5060712;28;20056;-83
2022/09/25 05:29:33;;;;;;;3.47;3.17;;;;;;;16.36;55.58;101835.47;5067893;28;20402;-83
2022/09/25 05:31:59;;;;;;;3.95;3.58;;;;;;;16.42;55.45;101841.03;5061620;28;20029;-85
2022/09/25 05:34:25;;;;;;;5.03;3.92;;;;;;;16.44;55.36;101845.53;5049961;28;20105;-87
2022/09/25 05:36:51;;;;;;;4.20;3.80;;;;;;;16.40;55.40;101845.34;5063293;28;20486;-86
2022/09/25 05:39:16;;;;;;;3.88;3.47;;;;;;;16.37;55.53;101843.47;5054691;28;20037;-88
2022/09/25 05:41:42;;;;;;;4.10;3.53;;;;;;;16.25;55.63;101827.06;5063059;28;20025;-89
2022/09/25 05:44:09;;;;;;;4.13;3.72;;;;;;;16.32;55.76;101845.00;5069357;28;20051;-89
2022/09/25 05:46:35;;;;;;;5.07;3.75;;;;;;;16.23;55.84;101828.72;5046155;28;20526;-88
2022/09/25 05:49:01;;;;;;;3.80;3.50;;;;;;;16.30;55.66;101833.47;5056277;28;20087;-88
2022/09/25 05:51:27;;;;;;;4.38;3.70;;;;;;;16.37;55.72;101845.22;5047130;28;20521;-88
2022/09/25 05:53:53;;;;;;;5.28;3.72;;;;;;;16.33;55.82;101849.41;5027531;28;20474;-88
2022/09/25 05:56:19;;;;;;;;;;;;;;;16.41;55.81;101855.06;5061297;28;20033;-88
2022/09/25 05:58:46;;;;;;;4.53;3.85;;;;;;;16.20;56.13;101828.59;5072068;28;19948;-88
2022/09/25 06:01:12;;;;;;;4.13;3.60;;;;;;;16.25;56.23;101843.78;5049595;28;20544;-89
2022/09/25 06:03:37;;;;;;;;;;;;;;;16.36;56.06;101857.50;5059414;28;20090;-87
2022/09/25 06:06:04;;;;;;;3.78;3.40;;;;;;;16.37;55.93;101866.28;5073629;28;19916;-88
2022/09/25 06:08:34;;;;;;;3.67;3.30;;;;;;;16.32;56.03;101863.44;5057226;28;20047;-89
2022/09/25 06:11:01;;;;;;;4.10;3.67;;;;;;;16.21;56.16;101843.56;5056405;28;20094;-87
2022/09/25 06:13:28;;;;;;;4.00;3.60;;;;;;;16.27;56.33;101875.47;5066046;28;20062;-85
2022/09/25 06:15:53;;;;;;;4.07;3.53;;;;;;;16.33;56.33;101873.16;5066429;28;20111;-88
2022/09/25 06:18:21;;;;;;;3.70;3.40;;;;;;;16.19;56.47;101867.22;5065463;28;20028;-87
2022/09/25 06:20:47;;;;;;;4.00;3.58;;;;;;;16.20;56.39;101874.28;5073282;28;20033;-86
2022/09/25 06:23:13;;;;;;;4.00;3.60;;;;;;;16.16;56.58;101879.34;5073789;28;20020;-88
2022/09/25 06:25:39;;;;;;;4.63;3.40;;;;;;;16.13;56.58;101880.09;5058980;28;20113;-87
2022/09/25 06:28:05;;;;;;;;;;;;;;;16.16;56.54;101874.97;5065323;28;20044;-87
2022/09/25 06:30:33;;;;;;;3.67;3.33;;;;;;;16.04;56.81;101856.84;5067752;28;19916;-81
2022/09/25 06:33:03;;;;;;;3.80;3.45;;;;;;;16.11;56.81;101873.84;5057502;28;20100;-82
2022/09/25 06:35:29;;;;;;;3.92;3.58;;;;;;;16.19;56.53;101871.56;5071537;28;20028;-82
2022/09/25 06:37:59;;;;;;;4.00;3.55;;;;;;;16.12;56.88;101870.38;5072274;28;20021;-82
2022/09/25 06:40:26;;;;;;;3.67;3.30;;;;;;;16.12;56.70;101880.00;5044127;28;20054;-83
2022/09/25 06:43:11;;;;;;;3.50;3.08;;;;;;;16.14;56.79;101873.97;5057772;28;20111;-82
2022/09/25 06:45:38;;;;;;;4.82;3.70;;;;;;;16.11;56.82;101870.28;5061490;28;20044;-82
2022/09/25 06:48:21;;;;;;;4.43;3.72;;;;;;;16.05;56.94;101860.38;5068590;28;20029;-83
2022/09/25 06:50:50;;;;;;;3.78;3.47;;;;;;;16.12;56.79;101867.72;5055642;28;20028;-82
2022/09/25 06:53:16;;;;;;;4.72;3.63;;;;;;;16.10;56.89;101864.13;5048908;28;20741;-82
2022/09/25 06:55:45;;;;;;;4.85;3.30;;;;;;;16.06;56.87;101865.72;5055473;28;20032;-82
2022/09/25 06:58:13;;;;;;;3.90;3.60;;;;;;;16.07;57.02;101856.97;5044656;28;20067;-83
2022/09/25 07:00:39;;;;;;;3.95;3.63;;;;;;;15.95;57.09;101831.75;5054549;28;20021;-82
2022/09/25 07:05:50;;;;;;;4.13;3.33;;;;;;;16.09;56.91;101870.22;5071722;28;20123;-87
2022/09/25 07:08:21;;;;;;;3.85;3.42;;;;;;;16.00;56.75;101843.41;5062324;28;20115;-86
2022/09/25 07:10:48;;;;;;;4.03;3.60;;;;;;;16.13;56.85;101876.53;5040158;28;20094;-89
2022/09/25 07:13:14;;;;;;;3.67;3.25;;;;;;;16.07;56.86;101864.88;5068498;28;20029;-87
2022/09/25 07:15:39;;;;;;;4.00;3.63;;;;;;;16.10;56.87;101868.50;5059419;28;20040;-87
2022/09/25 07:18:05;;;;;;;3.55;3.25;;;;;;;16.10;57.10;101869.38;5067374;28;20035;-86
2022/09/25 07:20:31;;;;;;;3.78;3.38;;;;;;;16.00;56.78;101848.69;5030781;28;20027;-86
2022/09/25 07:23:03;;;;;;;4.20;3.25;;;;;;;16.10;56.88;101868.50;5054923;28;20032;-86
2022/09/25 07:25:31;;;;;;;3.40;3.10;;;;;;;16.10;56.81;101865.84;5064037;28;20405;-86
2022/09/25 07:27:57;;;;;;;3.42;3.13;;;;;;;16.03;56.72;101849.75;5039883;28;20136;-86
2022/09/25 07:30:26;;;;;;;3.47;3.17;;;;;;;16.09;56.81;101870.22;5042318;28;20026;-88
2022/09/25 07:32:52;;;;;;;3.45;3.15;;;;;;;16.06;56.96;101859.53;5034229;28;20035;-89
2022/09/25 07:35:18;;;;;;;4.40;3.75;;;;;;;16.09;57.07;101867.59;5049850;28;20024;-86
2022/09/25 07:37:43;;;;;;;3.67;3.35;;;;;;;15.96;56.95;101852.00;5044514;28;20064;-87
2022/09/25 07:40:13;;;;;;;3.83;3.40;;;;;;;16.03;56.81;101851.47;5051226;28;20029;-87
2022/09/25 07:42:40;;;;;;;3.90;3.60;;;;;;;16.01;56.99;101847.88;5049823;28;20033;-87
2022/09/25 07:45:06;;;;;;;5.40;3.80;;;;;;;16.14;56.90;101878.34;5045143;28;20025;-85
2022/09/25 07:47:32;;;;;;;3.90;3.10;;;;;;;15.66;57.06;101804.84;5045325;28;20067;-87
2022/09/25 07:49:58;;;;;;;3.72;3.42;;;;;;;16.15;57.02;101869.59;5029635;28;20064;-85
2022/09/25 07:52:23;;;;;;;3.90;3.58;;;;;;;15.87;57.14;101826.09;5051046;28;20029;-87
2022/09/25 07:54:50;;;;;;;4.15;3.75;;;;;;;16.03;57.13;101843.59;5050144;28;20420;-86
2022/09/25 07:57:19;;;;;;;4.43;3.65;;;;;;;16.02;56.93;101825.94;5049963;28;20030;-87
2022/09/25 07:59:47;;;;;;;4.25;3.53;;;;;;;15.92;57.21;101821.06;5051390;28;20067;-86
2022/09/25 08:02:13;;;;;;;3.95;3.38;;;;;;;16.16;57.14;101859.16;5040861;28;20071;-84
2022/09/25 08:04:39;;;;;;;3.72;3.42;;;;;;;16.11;57.16;101843.94;5048396;28;20506;-85
2022/09/25 08:07:04;;;;;;;3.78;3.47;;;;;;;16.18;57.52;101864.50;5051195;28;20082;-85
2022/09/25 08:09:30;;;;;;;4.18;3.80;;;;;;;16.08;57.16;101835.03;5045358;28;20033;-84
2022/09/25 08:11:55;;;;;;;4.57;3.70;;;;;;;16.24;57.10;101847.25;5040860;28;20106;-85
2022/09/25 08:14:21;;;;;;;4.18;3.80;;;;;;;16.04;57.27;101830.50;5044667;28;20051;-86
2022/09/25 08:16:48;;;;;;;5.43;3.70;;;;;;;16.13;57.44;101839.63;5029586;28;20492;-85
2022/09/25 08:19:17;;;;;;;4.18;3.58;;;;;;;16.18;57.30;101861.88;5029038;28;20083;-87
2022/09/25 08:21:43;;;;;;;3.80;3.33;;;;;;;16.20;57.05;101858.47;5033157;28;20032;-85
2022/09/25 08:24:09;;;;;;;4.35;3.95;;;;;;;16.19;57.09;101859.31;5045949;28;20053;-86
2022/09/25 08:26:35;;;;;;;3.75;3.45;;;;;;;16.06;57.32;101833.16;5061150;28;20051;-86
2022/09/25 08:29:03;;;;;;;4.15;3.65;;;;;;;16.12;56.97;101833.47;5054999;28;20081;-86
2022/09/25 08:31:28;;;;;;;4.00;3.50;;;;;;;16.10;57.18;101824.59;5048988;28;20028;-85
2022/09/25 08:33:54;;;;;;;3.95;3.65;;;;;;;15.98;57.14;101809.09;5052696;28;20074;-85
2022/09/25 08:36:20;;;;;;;4.10;3.70;;;;;;;16.20;57.11;101834.75;5049704;28;20115;-88
2022/09/25 08:38:46;;;;;;;4.18;3.78;;;;;;;16.19;57.20;101837.31;5040760;28;20037;-86
2022/09/25 08:41:12;;;;;;;;;;;;;;;16.21;57.21;101833.00;5045081;28;20454;-85
2022/09/25 08:44:18;;;;;;;3.83;3.40;;;;;;;16.22;57.22;101819.91;5047162;28;20461;-85
2022/09/25 08:49:52;;;;;;;4.30;3.60;;;;;;;16.10;57.59;101799.97;5044666;28;20079;-85
2022/09/25 08:52:20;;;;;;;3.80;3.50;;;;;;;15.86;57.48;101766.34;5034722;28;20029;-84
2022/09/25 08:54:46;;;;;;;4.75;4.20;;;;;;;16.15;57.29;101807.28;5031367;28;20376;-84
2022/09/25 08:57:15;;;;;;;4.32;3.92;;;;;;;16.19;57.42;101805.69;5040309;28;20612;-85
2022/09/25 08:59:46;;;;;;;3.83;3.42;;;;;;;15.99;57.40;101781.91;5045309;28;20036;-86
2022/09/25 09:02:15;;;;;;;4.07;3.67;;;;;;;15.95;57.34;101779.97;5039946;28;20075;-85
2022/09/25 09:04:53;;;;;;;3.80;3.50;;;;;;;16.02;57.44;101791.69;5048416;28;20021;-85
2022/09/25 09:07:24;;;;;;;4.35;3.95;;;;;;;16.18;57.30;101819.69;5046168;28;20114;-83
2022/09/25 09:10:15;;;;;;;4.13;3.72;;;;;;;16.16;57.42;101816.97;5048661;28;20029;-81
2022/09/25 09:13:27;;;;;;;4.18;3.78;;;;;;;16.04;57.46;101793.59;5052368;28;20041;-85
2022/09/25 09:16:13;;;;;;;5.43;3.80;;;;;;;16.16;57.54;101821.34;5027804;28;20076;-85
2022/09/25 09:18:40;;;;;;;4.28;3.40;;;;;;;16.20;57.44;101816.31;5029414;28;20038;-85
2022/09/25 09:21:17;;;;;;;4.32;3.83;;;;;;;16.19;57.47;101818.84;5046138;28;20033;-83
2022/09/25 09:23:45;;;;;;;4.43;4.03;;;;;;;16.17;57.60;101809.97;5041385;28;20057;-84
2022/09/25 09:26:31;;;;;;;4.50;3.85;;;;;;;16.14;57.36;101804.56;5044294;28;20641;-83
2022/09/25 09:29:15;;;;;;;4.18;3.78;;;;;;;16.22;57.39;101811.13;5048098;28;20444;-84
2022/09/25 09:31:45;;;;;;;3.83;3.53;;;;;;;16.22;57.31;101806.75;5047826;28;20033;-85
2022/09/25 09:34:47;;;;;;;4.03;3.65;;;;;;;16.25;57.23;101796.31;5066795;28;20413;-84
2022/09/25 09:37:42;;;;;;;4.18;3.63;;;;;;;16.19;57.24;101796.06;5064678;28;20419;-83
2022/09/25 09:40:29;;;;;;;4.78;4.07;;;;;;;16.26;57.19;101803.41;5072102;28;20508;-83
2022/09/25 09:42:58;;;;;;;3.65;3.33;;;;;;;16.27;57.13;101792.03;5073636;28;20031;-84
2022/09/25 09:45:43;;;;;;;7.60;5.28;;;;;;;16.87;57.09;101791.28;5050209;28;20036;-88
2022/09/25 09:48:35;;;;;;;8.63;5.05;;;;;;;16.79;57.08;101788.28;5052156;28;20492;-85
2022/09/25 09:51:16;;;;;;;9.70;4.82;;;;;;;16.45;57.39;101773.53;5059169;28;20033;-84
2022/09/25 09:54:03;;;;;;;7.90;5.00;;;;;;;16.43;57.43;101780.47;5060118;28;20501;-85
2022/09/25 09:56:34;;;;;;;7.63;5.07;;;;;;;16.44;57.37;101782.28;5038759;28;20445;-85
2022/09/25 09:59:05;;;;;;;7.80;4.85;;;;;;;16.45;57.42;101781.47;5042899;28;20040;-83
2022/09/25 10:01:36;;;;;;;6.55;4.50;;;;;;;16.57;56.92;101782.84;5040576;28;20021;-84
2022/09/25 10:04:19;;;;;;;7.35;5.10;;;;;;;16.58;57.06;101784.66;5050889;28;20020;-82
2022/09/25 10:07:03;;;;;;;5.47;4.65;;;;;;;16.57;56.71;101765.28;5058970;28;20035;-83
2022/09/25 10:09:28;;;;;;;5.30;4.80;;;;;;;16.66;56.87;101768.34;5074473;28;20401;-83
2022/09/25 10:12:04;;;;;;;7.45;4.78;;;;;;;16.73;56.39;101764.25;5071666;28;20035;-83
2022/09/25 10:14:35;;;;;;;5.20;4.70;;;;;;;16.59;56.33;101733.72;5062845;28;20039;-83
2022/09/25 10:17:00;;;;;;;5.88;4.80;;;;;;;16.64;56.45;101754.19;5061369;28;20021;-84
2022/09/25 10:19:28;;;;;;;4.93;4.43;;;;;;;16.80;56.24;101761.06;5073893;28;20500;-84
2022/09/25 10:22:05;;;;;;;4.90;4.20;;;;;;;16.68;56.52;101750.88;5055879;28;20417;-84
2022/09/25 10:24:54;;;;;;;4.90;4.40;;;;;;;16.80;56.30;101755.78;5070363;28;20036;-84
2022/09/25 10:27:25;;;;;;;6.07;4.90;;;;;;;16.81;56.21;101754.97;5068292;28;20051;-85
2022/09/25 10:30:17;;;;;;;5.07;4.57;;;;;;;16.83;56.20;101741.88;5073848;28;20028;-84
2022/09/25 10:33:01;;;;;;;4.97;4.40;;;;;;;16.64;56.48;101733.09;5055056;28;20493;-85
2022/09/25 10:35:29;;;;;;;4.95;4.47;;;;;;;16.74;56.42;101746.69;5055464;28;20032;-84
2022/09/25 10:37:57;;;;;;;7.53;4.55;;;;;;;16.75;56.58;101751.13;5065661;28;20028;-85
2022/09/25 10:40:25;;;;;;;4.55;3.90;;;;;;;16.56;56.34;101726.56;5065939;28;20489;-84
2022/09/25 10:43:19;;;;;;;4.85;4.40;;;;;;;16.73;56.53;101737.88;5072365;28;20154;-85
2022/09/25 10:45:47;;;;;;;4.72;4.30;;;;;;;16.71;56.64;101736.91;5033079;28;20421;-84
2022/09/25 10:51:17;;;;;;;4.95;4.40;;;;;;;16.64;56.66;101727.81;5055558;28;20051;-85
2022/09/25 10:53:44;;;;;;;5.38;4.28;;;;;;;16.52;56.69;101700.91;5026211;28;20024;-85
2022/09/25 10:56:14;;;;;;;4.85;4.00;;;;;;;16.58;56.69;101698.53;5055720;28;20033;-85
2022/09/25 10:58:55;;;;;;;4.75;4.10;;;;;;;16.77;56.39;101713.44;5056433;28;20059;-85
2022/09/25 11:01:29;;;;;;;4.38;3.97;;;;;;;16.57;56.88;101682.63;5055091;28;20041;-85
2022/09/25 11:03:56;;;;;;;4.75;4.35;;;;;;;16.60;56.97;101696.88;5021397;28;20023;-85
2022/09/25 11:06:26;;;;;;;4.45;4.03;;;;;;;16.44;56.77;101670.66;5055472;28;20021;-84
2022/09/25 11:09:23;;;;;;;4.90;4.28;;;;;;;16.51;56.88;101685.00;5037322;28;20031;-84
2022/09/25 11:11:51;;;;;;;4.70;4.28;;;;;;;16.69;56.58;101701.66;5063377;28;20108;-84
2022/09/25 11:14:21;;;;;;;4.55;4.10;;;;;;;16.71;56.65;101694.69;5064516;28;20545;-84
2022/09/25 11:16:59;;;;;;;4.40;4.00;;;;;;;16.40;57.06;101669.63;5035264;28;20090;-84
2022/09/25 11:19:29;;;;;;;4.03;3.67;;;;;;;16.49;56.90;101675.31;5065948;28;20090;-84
2022/09/25 11:22:03;;;;;;;4.20;3.80;;;;;;;16.65;56.86;101697.97;5070068;28;20090;-84
2022/09/25 11:24:57;;;;;;;3.90;3.60;;;;;;;16.71;56.74;101688.53;5070696;28;20032;-84
2022/09/25 11:27:30;;;;;;;4.82;4.35;;;;;;;16.56;56.99;101670.31;5069713;28;20109;-84
2022/09/25 11:30:03;;;;;;;4.43;4.03;;;;;;;16.64;56.95;101690.91;5066070;28;20036;-85
2022/09/25 11:32:55;;;;;;;4.40;4.00;;;;;;;16.66;56.91;101694.50;5064535;28;20033;-83
2022/09/25 11:35:35;;;;;;;4.53;3.97;;;;;;;16.33;57.59;101649.09;5034402;28;20072;-84
2022/09/25 11:41:44;;;;;;;5.05;4.40;;;;;;;16.77;56.76;101694.97;5070489;28;20404;-85
2022/09/25 11:44:26;;;;;;;4.43;4.03;;;;;;;16.72;56.89;101688.59;5058308;28;20056;-84
2022/09/25 11:47:14;;;;;;;4.43;4.03;;;;;;;16.80;56.74;101681.00;5067359;28;20028;-85
2022/09/25 11:49:40;;;;;;;4.55;4.13;;;;;;;16.81;56.68;101683.75;5050619;28;20398;-84
2022/09/25 11:52:32;;;;;;;4.45;4.05;;;;;;;16.73;56.87;101668.41;5063656;28;20032;-85
2022/09/25 11:55:19;;;;;;;3.90;3.60;;;;;;;16.73;56.84;101673.69;5064604;28;20525;-84
2022/09/25 11:58:00;;;;;;;4.88;4.43;;;;;;;16.65;56.82;101655.75;5057867;28;20569;-85
2022/09/25 12:00:53;;;;;;;4.30;3.90;;;;;;;16.88;56.39;101672.63;5071304;28;20055;-84
2022/09/25 12:03:37;;;;;;;4.43;4.03;;;;;;;16.85;56.63;101668.97;5052076;28;20090;-85
2022/09/25 12:06:37;;;;;;;4.40;4.00;;;;;;;16.87;56.60;101664.66;5071370;28;20028;-85